sensor_id;sensor_type;location;lat;lon;timestamp;P1;durP1;ratioP1;P2;durP2;ratioP2
16735;SDS011;17990;49.548;9.730;2022-10-23T00:01:30;16.80;;;8.10;;
16735;SDS011;17990;49.548;9.730;2022-10-23T00:03:59;13.70;;;7.03;;
16735;SDS011;17990;49.548;9.730;2022-10-23T00:06:28;14.80;;;6.77;;
16735;SDS011;17990;49.548;9.730;2022-10-23T00:08:57;16.10;;;6.57;;
16735;SDS011;17990;49.548;9.730;2022-10-23T00:11:26;14.97;;;6.27;;
16735;SDS011;17990;49.548;9.730;2022-10-23T00:13:57;13.10;;;7.33;;
16735;SDS011;17990;49.548;9.730;2022-10-23T00:16:28;16.33;;;8.60;;
16735;SDS011;17990;49.548;9.730;2022-10-23T00:18:55;16.33;;;8.87;;
16735;SDS011;17990;49.548;9.730;2022-10-23T00:21:23;14.23;;;6.50;;
16735;SDS011;17990;49.548;9.730;2022-10-23T00:23:50;8.03;;;4.57;;
16735;SDS011;17990;49.548;9.730;2022-10-23T00:26:17;6.93;;;4.70;;
16735;SDS011;17990;49.548;9.730;2022-10-23T00:28:45;9.77;;;4.90;;
16735;SDS011;17990;49.548;9.730;2022-10-23T00:31:14;9.57;;;4.57;;
16735;SDS011;17990;49.548;9.730;2022-10-23T00:33:43;8.77;;;4.60;;
16735;SDS011;17990;49.548;9.730;2022-10-23T00:36:10;6.73;;;4.77;;
16735;SDS011;17990;49.548;9.730;2022-10-23T00:38:39;6.27;;;5.20;;
16735;SDS011;17990;49.548;9.730;2022-10-23T00:41:07;11.47;;;5.43;;
16735;SDS011;17990;49.548;9.730;2022-10-23T00:43:58;20.67;;;6.57;;
16735;SDS011;17990;49.548;9.730;2022-10-23T00:46:29;17.77;;;6.43;;
16735;SDS011;17990;49.548;9.730;2022-10-23T00:48:59;15.33;;;5.77;;
16735;SDS011;17990;49.548;9.730;2022-10-23T00:51:28;13.80;;;6.17;;
16735;SDS011;17990;49.548;9.730;2022-10-23T00:53:59;23.33;;;6.13;;
16735;SDS011;17990;49.548;9.730;2022-10-23T00:56:29;10.70;;;4.87;;
16735;SDS011;17990;49.548;9.730;2022-10-23T00:58:57;16.73;;;5.70;;
16735;SDS011;17990;49.548;9.730;2022-10-23T01:01:24;13.43;;;5.53;;
16735;SDS011;17990;49.548;9.730;2022-10-23T01:03:51;7.90;;;5.70;;
16735;SDS011;17990;49.548;9.730;2022-10-23T01:06:24;8.67;;;5.70;;
16735;SDS011;17990;49.548;9.730;2022-10-23T01:09:02;9.77;;;5.00;;
16735;SDS011;17990;49.548;9.730;2022-10-23T01:11:38;8.83;;;4.90;;
16735;SDS011;17990;49.548;9.730;2022-10-23T01:14:12;10.97;;;4.87;;
16735;SDS011;17990;49.548;9.730;2022-10-23T01:16:50;16.63;;;6.60;;
16735;SDS011;17990;49.548;9.730;2022-10-23T01:19:29;9.87;;;4.87;;
16735;SDS011;17990;49.548;9.730;2022-10-23T01:22:16;10.50;;;4.07;;
16735;SDS011;17990;49.548;9.730;2022-10-23T01:24:59;6.40;;;4.00;;
16735;SDS011;17990;49.548;9.730;2022-10-23T01:27:35;7.13;;;4.60;;
16735;SDS011;17990;49.548;9.730;2022-10-23T01:30:07;11.40;;;4.47;;
16735;SDS011;17990;49.548;9.730;2022-10-23T01:32:38;8.53;;;4.27;;
16735;SDS011;17990;49.548;9.730;2022-10-23T01:35:12;11.73;;;4.70;;
16735;SDS011;17990;49.548;9.730;2022-10-23T01:37:44;12.33;;;4.20;;
16735;SDS011;17990;49.548;9.730;2022-10-23T01:40:19;8.00;;;4.10;;
16735;SDS011;17990;49.548;9.730;2022-10-23T01:42:53;8.13;;;4.20;;
16735;SDS011;17990;49.548;9.730;2022-10-23T01:45:25;11.40;;;4.90;;
16735;SDS011;17990;49.548;9.730;2022-10-23T01:47:57;8.43;;;4.50;;
16735;SDS011;17990;49.548;9.730;2022-10-23T01:50:27;17.70;;;5.10;;
16735;SDS011;17990;49.548;9.730;2022-10-23T01:52:56;9.60;;;4.90;;
16735;SDS011;17990;49.548;9.730;2022-10-23T01:55:23;24.77;;;5.67;;
16735;SDS011;17990;49.548;9.730;2022-10-23T01:57:52;29.57;;;5.93;;
16735;SDS011;17990;49.548;9.730;2022-10-23T02:00:20;28.77;;;5.70;;
16735;SDS011;17990;49.548;9.730;2022-10-23T02:02:47;26.67;;;5.67;;
16735;SDS011;17990;49.548;9.730;2022-10-23T02:05:17;13.67;;;4.97;;
16735;SDS011;17990;49.548;9.730;2022-10-23T02:07:47;19.93;;;6.17;;
16735;SDS011;17990;49.548;9.730;2022-10-23T02:10:15;31.47;;;6.70;;
16735;SDS011;17990;49.548;9.730;2022-10-23T02:12:45;22.53;;;5.90;;
16735;SDS011;17990;49.548;9.730;2022-10-23T02:15:20;13.77;;;5.40;;
16735;SDS011;17990;49.548;9.730;2022-10-23T02:17:57;17.90;;;5.60;;
16735;SDS011;17990;49.548;9.730;2022-10-23T02:20:35;66.53;;;7.70;;
16735;SDS011;17990;49.548;9.730;2022-10-23T02:23:08;54.37;;;7.70;;
16735;SDS011;17990;49.548;9.730;2022-10-23T02:25:44;44.03;;;8.30;;
16735;SDS011;17990;49.548;9.730;2022-10-23T02:28:17;122.63;;;9.57;;
16735;SDS011;17990;49.548;9.730;2022-10-23T02:30:51;98.33;;;8.23;;
16735;SDS011;17990;49.548;9.730;2022-10-23T02:33:20;76.17;;;7.07;;
16735;SDS011;17990;49.548;9.730;2022-10-23T02:35:48;82.97;;;7.23;;
16735;SDS011;17990;49.548;9.730;2022-10-23T02:38:27;75.90;;;7.40;;
16735;SDS011;17990;49.548;9.730;2022-10-23T02:41:01;76.03;;;7.17;;
16735;SDS011;17990;49.548;9.730;2022-10-23T02:43:44;55.30;;;7.60;;
16735;SDS011;17990;49.548;9.730;2022-10-23T02:46:24;64.00;;;7.37;;
16735;SDS011;17990;49.548;9.730;2022-10-23T02:49:01;57.53;;;7.10;;
16735;SDS011;17990;49.548;9.730;2022-10-23T02:51:41;60.23;;;7.00;;
16735;SDS011;17990;49.548;9.730;2022-10-23T02:54:22;103.50;;;8.77;;
16735;SDS011;17990;49.548;9.730;2022-10-23T02:57:00;86.40;;;8.20;;
16735;SDS011;17990;49.548;9.730;2022-10-23T02:59:34;122.50;;;8.20;;
16735;SDS011;17990;49.548;9.730;2022-10-23T03:02:12;68.00;;;7.30;;
16735;SDS011;17990;49.548;9.730;2022-10-23T03:04:44;67.57;;;7.07;;
16735;SDS011;17990;49.548;9.730;2022-10-23T03:07:12;82.27;;;8.33;;
16735;SDS011;17990;49.548;9.730;2022-10-23T03:09:40;56.90;;;7.17;;
16735;SDS011;17990;49.548;9.730;2022-10-23T03:12:07;62.37;;;6.20;;
16735;SDS011;17990;49.548;9.730;2022-10-23T03:14:34;58.37;;;7.47;;
16735;SDS011;17990;49.548;9.730;2022-10-23T03:17:01;45.67;;;6.27;;
16735;SDS011;17990;49.548;9.730;2022-10-23T03:19:29;53.97;;;6.87;;
16735;SDS011;17990;49.548;9.730;2022-10-23T03:21:56;45.17;;;5.70;;
16735;SDS011;17990;49.548;9.730;2022-10-23T03:24:23;64.10;;;6.57;;
16735;SDS011;17990;49.548;9.730;2022-10-23T03:26:50;67.77;;;6.70;;
16735;SDS011;17990;49.548;9.730;2022-10-23T03:29:16;42.33;;;7.00;;
16735;SDS011;17990;49.548;9.730;2022-10-23T03:31:44;42.20;;;5.90;;
16735;SDS011;17990;49.548;9.730;2022-10-23T03:34:10;20.93;;;4.87;;
16735;SDS011;17990;49.548;9.730;2022-10-23T03:36:40;43.17;;;5.13;;
16735;SDS011;17990;49.548;9.730;2022-10-23T03:39:07;27.57;;;5.43;;
16735;SDS011;17990;49.548;9.730;2022-10-23T03:41:35;27.97;;;6.43;;
16735;SDS011;17990;49.548;9.730;2022-10-23T03:44:04;45.27;;;5.80;;
16735;SDS011;17990;49.548;9.730;2022-10-23T03:46:30;36.57;;;5.03;;
16735;SDS011;17990;49.548;9.730;2022-10-23T03:48:57;28.67;;;5.70;;
16735;SDS011;17990;49.548;9.730;2022-10-23T03:51:24;28.13;;;5.70;;
16735;SDS011;17990;49.548;9.730;2022-10-23T03:53:53;39.80;;;5.97;;
16735;SDS011;17990;49.548;9.730;2022-10-23T03:56:21;50.27;;;6.20;;
16735;SDS011;17990;49.548;9.730;2022-10-23T03:58:48;37.20;;;6.37;;
16735;SDS011;17990;49.548;9.730;2022-10-23T04:01:15;42.53;;;6.00;;
16735;SDS011;17990;49.548;9.730;2022-10-23T04:03:42;30.10;;;6.00;;
16735;SDS011;17990;49.548;9.730;2022-10-23T04:06:09;54.07;;;7.13;;
16735;SDS011;17990;49.548;9.730;2022-10-23T04:08:36;42.50;;;6.03;;
16735;SDS011;17990;49.548;9.730;2022-10-23T04:11:04;33.77;;;5.73;;
16735;SDS011;17990;49.548;9.730;2022-10-23T04:13:31;24.07;;;5.20;;
16735;SDS011;17990;49.548;9.730;2022-10-23T04:15:58;51.60;;;6.83;;
16735;SDS011;17990;49.548;9.730;2022-10-23T04:18:25;36.30;;;6.07;;
16735;SDS011;17990;49.548;9.730;2022-10-23T04:20:52;38.60;;;5.40;;
16735;SDS011;17990;49.548;9.730;2022-10-23T04:23:20;26.23;;;5.87;;
16735;SDS011;17990;49.548;9.730;2022-10-23T04:25:47;33.37;;;5.70;;
16735;SDS011;17990;49.548;9.730;2022-10-23T04:28:15;58.30;;;6.40;;
16735;SDS011;17990;49.548;9.730;2022-10-23T04:30:42;124.13;;;8.60;;
16735;SDS011;17990;49.548;9.730;2022-10-23T04:33:09;135.93;;;8.43;;
16735;SDS011;17990;49.548;9.730;2022-10-23T04:35:36;129.77;;;7.90;;
16735;SDS011;17990;49.548;9.730;2022-10-23T04:38:02;142.07;;;10.37;;
16735;SDS011;17990;49.548;9.730;2022-10-23T04:40:29;152.80;;;8.43;;
16735;SDS011;17990;49.548;9.730;2022-10-23T04:42:56;151.80;;;9.80;;
16735;SDS011;17990;49.548;9.730;2022-10-23T04:45:25;134.63;;;8.67;;
16735;SDS011;17990;49.548;9.730;2022-10-23T04:47:52;88.57;;;6.80;;
16735;SDS011;17990;49.548;9.730;2022-10-23T04:50:20;92.03;;;7.27;;
16735;SDS011;17990;49.548;9.730;2022-10-23T04:52:47;109.67;;;7.80;;
16735;SDS011;17990;49.548;9.730;2022-10-23T04:55:18;86.00;;;7.17;;
16735;SDS011;17990;49.548;9.730;2022-10-23T04:57:45;60.27;;;5.90;;
16735;SDS011;17990;49.548;9.730;2022-10-23T05:00:13;76.17;;;5.97;;
16735;SDS011;17990;49.548;9.730;2022-10-23T05:02:42;107.17;;;7.77;;
16735;SDS011;17990;49.548;9.730;2022-10-23T05:05:09;122.23;;;6.77;;
16735;SDS011;17990;49.548;9.730;2022-10-23T05:07:37;87.23;;;5.97;;
16735;SDS011;17990;49.548;9.730;2022-10-23T05:10:05;81.53;;;6.97;;
16735;SDS011;17990;49.548;9.730;2022-10-23T05:12:32;49.80;;;5.67;;
16735;SDS011;17990;49.548;9.730;2022-10-23T05:14:59;71.13;;;5.57;;
16735;SDS011;17990;49.548;9.730;2022-10-23T05:17:27;71.27;;;5.17;;
16735;SDS011;17990;49.548;9.730;2022-10-23T05:20:00;70.63;;;5.43;;
16735;SDS011;17990;49.548;9.730;2022-10-23T05:22:33;90.27;;;6.47;;
16735;SDS011;17990;49.548;9.730;2022-10-23T05:25:03;78.50;;;7.60;;
16735;SDS011;17990;49.548;9.730;2022-10-23T05:27:30;53.53;;;5.67;;
16735;SDS011;17990;49.548;9.730;2022-10-23T05:29:57;75.27;;;5.67;;
16735;SDS011;17990;49.548;9.730;2022-10-23T05:32:25;49.97;;;6.33;;
16735;SDS011;17990;49.548;9.730;2022-10-23T05:34:55;55.27;;;5.27;;
16735;SDS011;17990;49.548;9.730;2022-10-23T05:37:23;33.10;;;5.10;;
16735;SDS011;17990;49.548;9.730;2022-10-23T05:39:51;73.97;;;6.23;;
16735;SDS011;17990;49.548;9.730;2022-10-23T05:42:18;72.03;;;5.57;;
16735;SDS011;17990;49.548;9.730;2022-10-23T05:44:45;37.50;;;4.73;;
16735;SDS011;17990;49.548;9.730;2022-10-23T05:47:12;60.87;;;5.77;;
16735;SDS011;17990;49.548;9.730;2022-10-23T05:49:39;77.10;;;7.07;;
16735;SDS011;17990;49.548;9.730;2022-10-23T05:52:05;38.17;;;5.00;;
16735;SDS011;17990;49.548;9.730;2022-10-23T05:54:37;70.07;;;6.17;;
16735;SDS011;17990;49.548;9.730;2022-10-23T05:57:04;51.27;;;6.17;;
16735;SDS011;17990;49.548;9.730;2022-10-23T05:59:31;82.30;;;5.80;;
16735;SDS011;17990;49.548;9.730;2022-10-23T06:01:57;70.37;;;5.77;;
16735;SDS011;17990;49.548;9.730;2022-10-23T06:04:24;68.87;;;6.20;;
16735;SDS011;17990;49.548;9.730;2022-10-23T06:06:51;49.03;;;5.90;;
16735;SDS011;17990;49.548;9.730;2022-10-23T06:09:18;45.80;;;5.43;;
16735;SDS011;17990;49.548;9.730;2022-10-23T06:11:47;31.90;;;4.87;;
16735;SDS011;17990;49.548;9.730;2022-10-23T06:14:13;48.93;;;6.60;;
16735;SDS011;17990;49.548;9.730;2022-10-23T06:16:42;57.20;;;6.17;;
16735;SDS011;17990;49.548;9.730;2022-10-23T06:19:09;28.50;;;5.07;;
16735;SDS011;17990;49.548;9.730;2022-10-23T06:21:36;33.97;;;4.67;;
16735;SDS011;17990;49.548;9.730;2022-10-23T06:24:06;22.23;;;4.33;;
16735;SDS011;17990;49.548;9.730;2022-10-23T06:26:33;60.80;;;7.27;;
16735;SDS011;17990;49.548;9.730;2022-10-23T06:29:01;57.47;;;6.40;;
16735;SDS011;17990;49.548;9.730;2022-10-23T06:31:28;93.70;;;7.60;;
16735;SDS011;17990;49.548;9.730;2022-10-23T06:33:56;107.97;;;9.20;;
16735;SDS011;17990;49.548;9.730;2022-10-23T06:36:26;30.53;;;5.67;;
16735;SDS011;17990;49.548;9.730;2022-10-23T06:38:53;72.17;;;8.00;;
16735;SDS011;17990;49.548;9.730;2022-10-23T06:41:21;52.23;;;4.93;;
16735;SDS011;17990;49.548;9.730;2022-10-23T06:43:48;98.80;;;8.23;;
16735;SDS011;17990;49.548;9.730;2022-10-23T06:46:18;46.07;;;5.37;;
16735;SDS011;17990;49.548;9.730;2022-10-23T06:48:46;59.17;;;6.33;;
16735;SDS011;17990;49.548;9.730;2022-10-23T06:51:14;129.97;;;9.57;;
16735;SDS011;17990;49.548;9.730;2022-10-23T06:53:42;97.33;;;7.83;;
16735;SDS011;17990;49.548;9.730;2022-10-23T06:56:10;51.53;;;5.63;;
16735;SDS011;17990;49.548;9.730;2022-10-23T06:58:38;112.10;;;7.87;;
16735;SDS011;17990;49.548;9.730;2022-10-23T07:01:06;73.23;;;7.37;;
16735;SDS011;17990;49.548;9.730;2022-10-23T07:03:37;200.27;;;10.27;;
16735;SDS011;17990;49.548;9.730;2022-10-23T07:06:05;40.60;;;5.17;;
16735;SDS011;17990;49.548;9.730;2022-10-23T07:08:34;86.33;;;6.67;;
16735;SDS011;17990;49.548;9.730;2022-10-23T07:11:02;78.67;;;6.57;;
16735;SDS011;17990;49.548;9.730;2022-10-23T07:13:30;66.80;;;7.87;;
16735;SDS011;17990;49.548;9.730;2022-10-23T07:15:58;59.23;;;6.37;;
16735;SDS011;17990;49.548;9.730;2022-10-23T07:18:35;43.27;;;5.13;;
16735;SDS011;17990;49.548;9.730;2022-10-23T07:21:03;43.70;;;5.57;;
16735;SDS011;17990;49.548;9.730;2022-10-23T07:23:30;78.07;;;6.07;;
16735;SDS011;17990;49.548;9.730;2022-10-23T07:26:01;37.17;;;5.40;;
16735;SDS011;17990;49.548;9.730;2022-10-23T07:28:30;63.60;;;7.13;;
16735;SDS011;17990;49.548;9.730;2022-10-23T07:30:57;50.10;;;6.30;;
16735;SDS011;17990;49.548;9.730;2022-10-23T07:33:24;27.53;;;5.10;;
16735;SDS011;17990;49.548;9.730;2022-10-23T07:35:51;191.60;;;9.40;;
16735;SDS011;17990;49.548;9.730;2022-10-23T07:38:20;72.67;;;6.43;;
16735;SDS011;17990;49.548;9.730;2022-10-23T07:40:46;42.93;;;5.37;;
16735;SDS011;17990;49.548;9.730;2022-10-23T07:43:13;130.70;;;8.20;;
16735;SDS011;17990;49.548;9.730;2022-10-23T07:45:42;42.80;;;4.07;;
16735;SDS011;17990;49.548;9.730;2022-10-23T07:48:12;52.97;;;5.00;;
16735;SDS011;17990;49.548;9.730;2022-10-23T07:50:39;52.13;;;4.63;;
16735;SDS011;17990;49.548;9.730;2022-10-23T07:53:06;37.33;;;4.60;;
16735;SDS011;17990;49.548;9.730;2022-10-23T07:55:37;58.33;;;5.23;;
16735;SDS011;17990;49.548;9.730;2022-10-23T07:58:04;23.83;;;4.07;;
16735;SDS011;17990;49.548;9.730;2022-10-23T08:00:31;40.30;;;4.20;;
16735;SDS011;17990;49.548;9.730;2022-10-23T08:02:58;18.87;;;4.30;;
16735;SDS011;17990;49.548;9.730;2022-10-23T08:05:25;47.13;;;7.23;;
16735;SDS011;17990;49.548;9.730;2022-10-23T08:07:52;34.87;;;4.50;;
16735;SDS011;17990;49.548;9.730;2022-10-23T08:10:19;23.00;;;3.83;;
16735;SDS011;17990;49.548;9.730;2022-10-23T08:12:47;23.37;;;3.83;;
16735;SDS011;17990;49.548;9.730;2022-10-23T08:15:14;16.13;;;3.50;;
16735;SDS011;17990;49.548;9.730;2022-10-23T08:17:41;7.83;;;3.50;;
16735;SDS011;17990;49.548;9.730;2022-10-23T08:20:08;5.73;;;3.20;;
16735;SDS011;17990;49.548;9.730;2022-10-23T08:22:37;6.67;;;3.40;;
16735;SDS011;17990;49.548;9.730;2022-10-23T08:25:05;5.47;;;3.30;;
16735;SDS011;17990;49.548;9.730;2022-10-23T08:27:32;4.13;;;2.90;;
16735;SDS011;17990;49.548;9.730;2022-10-23T08:30:00;3.53;;;3.23;;
16735;SDS011;17990;49.548;9.730;2022-10-23T08:32:27;5.70;;;3.20;;
16735;SDS011;17990;49.548;9.730;2022-10-23T08:34:55;3.33;;;2.80;;
16735;SDS011;17990;49.548;9.730;2022-10-23T08:37:22;3.50;;;2.93;;
16735;SDS011;17990;49.548;9.730;2022-10-23T08:39:49;3.20;;;2.90;;
16735;SDS011;17990;49.548;9.730;2022-10-23T08:42:17;3.47;;;3.10;;
16735;SDS011;17990;49.548;9.730;2022-10-23T08:44:49;3.27;;;2.97;;
16735;SDS011;17990;49.548;9.730;2022-10-23T08:47:29;3.50;;;2.60;;
16735;SDS011;17990;49.548;9.730;2022-10-23T08:50:02;3.33;;;2.70;;
16735;SDS011;17990;49.548;9.730;2022-10-23T08:52:38;3.70;;;2.77;;
16735;SDS011;17990;49.548;9.730;2022-10-23T08:55:13;3.87;;;2.70;;
16735;SDS011;17990;49.548;9.730;2022-10-23T08:57:44;2.60;;;2.40;;
16735;SDS011;17990;49.548;9.730;2022-10-23T09:00:17;2.93;;;2.50;;
16735;SDS011;17990;49.548;9.730;2022-10-23T09:02:46;3.53;;;2.20;;
16735;SDS011;17990;49.548;9.730;2022-10-23T09:05:17;2.53;;;2.33;;
16735;SDS011;17990;49.548;9.730;2022-10-23T09:08:06;3.27;;;2.20;;
16735;SDS011;17990;49.548;9.730;2022-10-23T09:10:57;3.80;;;2.20;;
16735;SDS011;17990;49.548;9.730;2022-10-23T09:13:33;3.03;;;1.83;;
16735;SDS011;17990;49.548;9.730;2022-10-23T09:16:35;2.70;;;2.20;;
16735;SDS011;17990;49.548;9.730;2022-10-23T09:19:21;4.50;;;2.20;;
16735;SDS011;17990;49.548;9.730;2022-10-23T09:21:51;2.43;;;2.10;;
16735;SDS011;17990;49.548;9.730;2022-10-23T09:24:20;3.33;;;1.90;;
16735;SDS011;17990;49.548;9.730;2022-10-23T09:26:51;3.27;;;1.73;;
16735;SDS011;17990;49.548;9.730;2022-10-23T09:29:23;2.20;;;1.70;;
16735;SDS011;17990;49.548;9.730;2022-10-23T09:31:52;2.57;;;2.20;;
16735;SDS011;17990;49.548;9.730;2022-10-23T09:34:23;4.10;;;2.30;;
16735;SDS011;17990;49.548;9.730;2022-10-23T09:36:53;3.57;;;2.37;;
16735;SDS011;17990;49.548;9.730;2022-10-23T09:39:24;5.57;;;2.47;;
16735;SDS011;17990;49.548;9.730;2022-10-23T09:41:55;4.57;;;2.10;;
16735;SDS011;17990;49.548;9.730;2022-10-23T09:44:23;3.57;;;2.50;;
16735;SDS011;17990;49.548;9.730;2022-10-23T09:46:52;2.67;;;2.00;;
16735;SDS011;17990;49.548;9.730;2022-10-23T09:49:26;5.60;;;2.30;;
16735;SDS011;17990;49.548;9.730;2022-10-23T09:52:01;3.17;;;2.33;;
16735;SDS011;17990;49.548;9.730;2022-10-23T09:54:31;3.67;;;2.17;;
16735;SDS011;17990;49.548;9.730;2022-10-23T09:57:03;2.10;;;1.90;;
16735;SDS011;17990;49.548;9.730;2022-10-23T09:59:49;2.63;;;1.90;;
16735;SDS011;17990;49.548;9.730;2022-10-23T10:02:19;2.77;;;1.93;;
16735;SDS011;17990;49.548;9.730;2022-10-23T10:04:54;2.70;;;2.20;;
16735;SDS011;17990;49.548;9.730;2022-10-23T10:07:22;4.57;;;2.20;;
16735;SDS011;17990;49.548;9.730;2022-10-23T10:09:52;4.40;;;2.10;;
16735;SDS011;17990;49.548;9.730;2022-10-23T10:12:31;3.40;;;2.33;;
16735;SDS011;17990;49.548;9.730;2022-10-23T10:15:14;4.30;;;2.20;;
16735;SDS011;17990;49.548;9.730;2022-10-23T10:17:51;2.90;;;2.13;;
16735;SDS011;17990;49.548;9.730;2022-10-23T10:20:36;4.60;;;2.47;;
16735;SDS011;17990;49.548;9.730;2022-10-23T10:23:25;2.57;;;2.20;;
16735;SDS011;17990;49.548;9.730;2022-10-23T10:26:00;3.27;;;1.93;;
16735;SDS011;17990;49.548;9.730;2022-10-23T10:28:40;5.83;;;2.00;;
16735;SDS011;17990;49.548;9.730;2022-10-23T10:31:22;2.33;;;1.83;;
16735;SDS011;17990;49.548;9.730;2022-10-23T10:34:01;3.70;;;2.00;;
16735;SDS011;17990;49.548;9.730;2022-10-23T10:36:42;3.67;;;1.83;;
16735;SDS011;17990;49.548;9.730;2022-10-23T10:39:18;5.03;;;1.77;;
16735;SDS011;17990;49.548;9.730;2022-10-23T10:42:03;3.13;;;1.60;;
16735;SDS011;17990;49.548;9.730;2022-10-23T10:45:02;2.00;;;1.80;;
16735;SDS011;17990;49.548;9.730;2022-10-23T10:47:48;2.63;;;1.77;;
16735;SDS011;17990;49.548;9.730;2022-10-23T10:50:35;2.80;;;1.87;;
16735;SDS011;17990;49.548;9.730;2022-10-23T10:53:16;3.53;;;1.60;;
16735;SDS011;17990;49.548;9.730;2022-10-23T10:55:50;5.13;;;1.70;;
16735;SDS011;17990;49.548;9.730;2022-10-23T10:58:20;4.20;;;1.70;;
16735;SDS011;17990;49.548;9.730;2022-10-23T11:00:57;6.10;;;1.67;;
16735;SDS011;17990;49.548;9.730;2022-10-23T11:03:29;1.50;;;1.33;;
16735;SDS011;17990;49.548;9.730;2022-10-23T11:06:01;2.83;;;1.60;;
16735;SDS011;17990;49.548;9.730;2022-10-23T11:08:35;2.33;;;1.50;;
16735;SDS011;17990;49.548;9.730;2022-10-23T11:11:05;2.40;;;1.50;;
16735;SDS011;17990;49.548;9.730;2022-10-23T11:13:39;2.33;;;1.50;;
16735;SDS011;17990;49.548;9.730;2022-10-23T11:16:09;2.30;;;1.60;;
16735;SDS011;17990;49.548;9.730;2022-10-23T11:18:40;1.80;;;1.37;;
16735;SDS011;17990;49.548;9.730;2022-10-23T11:21:14;2.07;;;1.40;;
16735;SDS011;17990;49.548;9.730;2022-10-23T11:24:03;2.93;;;1.90;;
16735;SDS011;17990;49.548;9.730;2022-10-23T11:26:46;1.87;;;1.40;;
16735;SDS011;17990;49.548;9.730;2022-10-23T11:36:05;4.07;;;1.60;;
16735;SDS011;17990;49.548;9.730;2022-10-23T11:38:39;5.17;;;1.30;;
16735;SDS011;17990;49.548;9.730;2022-10-23T11:41:17;4.07;;;1.47;;
16735;SDS011;17990;49.548;9.730;2022-10-23T11:43:46;5.93;;;1.50;;
16735;SDS011;17990;49.548;9.730;2022-10-23T11:46:27;2.07;;;1.60;;
16735;SDS011;17990;49.548;9.730;2022-10-23T11:48:56;2.90;;;1.40;;
16735;SDS011;17990;49.548;9.730;2022-10-23T11:51:27;3.33;;;1.40;;
16735;SDS011;17990;49.548;9.730;2022-10-23T11:56:53;5.17;;;2.00;;
16735;SDS011;17990;49.548;9.730;2022-10-23T11:59:38;2.60;;;1.60;;
16735;SDS011;17990;49.548;9.730;2022-10-23T12:02:20;1.70;;;1.52;;
16735;SDS011;17990;49.548;9.730;2022-10-23T12:04:56;3.40;;;1.73;;
16735;SDS011;17990;49.548;9.730;2022-10-23T12:07:27;3.07;;;1.43;;
16735;SDS011;17990;49.548;9.730;2022-10-23T12:09:59;5.23;;;1.80;;
16735;SDS011;17990;49.548;9.730;2022-10-23T12:12:31;6.47;;;1.58;;
16735;SDS011;17990;49.548;9.730;2022-10-23T12:15:17;3.93;;;1.13;;
16735;SDS011;17990;49.548;9.730;2022-10-23T12:17:48;2.07;;;1.43;;
16735;SDS011;17990;49.548;9.730;2022-10-23T12:20:25;3.60;;;1.50;;
16735;SDS011;17990;49.548;9.730;2022-10-23T12:23:09;4.57;;;1.40;;
16735;SDS011;17990;49.548;9.730;2022-10-23T12:25:53;2.93;;;1.80;;
16735;SDS011;17990;49.548;9.730;2022-10-23T12:28:43;4.77;;;1.70;;
16735;SDS011;17990;49.548;9.730;2022-10-23T12:31:25;2.27;;;1.53;;
16735;SDS011;17990;49.548;9.730;2022-10-23T12:34:03;2.57;;;1.53;;
16735;SDS011;17990;49.548;9.730;2022-10-23T12:36:46;1.60;;;1.05;;
16735;SDS011;17990;49.548;9.730;2022-10-23T12:39:36;2.90;;;1.30;;
16735;SDS011;17990;49.548;9.730;2022-10-23T12:42:05;1.60;;;1.23;;
16735;SDS011;17990;49.548;9.730;2022-10-23T12:44:42;5.00;;;1.40;;
16735;SDS011;17990;49.548;9.730;2022-10-23T12:47:10;5.30;;;1.50;;
16735;SDS011;17990;49.548;9.730;2022-10-23T12:49:46;3.33;;;1.52;;
16735;SDS011;17990;49.548;9.730;2022-10-23T12:52:15;3.83;;;1.52;;
16735;SDS011;17990;49.548;9.730;2022-10-23T12:54:45;2.80;;;1.35;;
16735;SDS011;17990;49.548;9.730;2022-10-23T12:57:16;3.55;;;1.52;;
16735;SDS011;17990;49.548;9.730;2022-10-23T12:59:48;4.00;;;1.20;;
16735;SDS011;17990;49.548;9.730;2022-10-23T13:02:20;3.72;;;1.25;;
16735;SDS011;17990;49.548;9.730;2022-10-23T13:04:50;3.97;;;1.20;;
16735;SDS011;17990;49.548;9.730;2022-10-23T13:07:20;2.27;;;1.33;;
16735;SDS011;17990;49.548;9.730;2022-10-23T13:09:51;2.50;;;1.60;;
16735;SDS011;17990;49.548;9.730;2022-10-23T13:12:19;3.90;;;1.60;;
16735;SDS011;17990;49.548;9.730;2022-10-23T13:14:56;4.25;;;2.25;;
16735;SDS011;17990;49.548;9.730;2022-10-23T13:17:34;3.42;;;1.33;;
16735;SDS011;17990;49.548;9.730;2022-10-23T13:20:07;1.95;;;1.42;;
16735;SDS011;17990;49.548;9.730;2022-10-23T13:22:47;2.95;;;1.27;;
16735;SDS011;17990;49.548;9.730;2022-10-23T13:25:20;4.20;;;1.00;;
16735;SDS011;17990;49.548;9.730;2022-10-23T13:27:49;2.83;;;1.98;;
16735;SDS011;17990;49.548;9.730;2022-10-23T13:30:28;5.20;;;1.48;;
16735;SDS011;17990;49.548;9.730;2022-10-23T13:32:57;3.67;;;1.20;;
16735;SDS011;17990;49.548;9.730;2022-10-23T13:35:25;2.50;;;1.30;;
16735;SDS011;17990;49.548;9.730;2022-10-23T13:37:52;3.53;;;1.50;;
16735;SDS011;17990;49.548;9.730;2022-10-23T13:40:20;5.50;;;1.42;;
16735;SDS011;17990;49.548;9.730;2022-10-23T13:42:50;1.98;;;1.30;;
16735;SDS011;17990;49.548;9.730;2022-10-23T13:45:19;1.85;;;1.20;;
16735;SDS011;17990;49.548;9.730;2022-10-23T13:47:49;4.43;;;1.20;;
16735;SDS011;17990;49.548;9.730;2022-10-23T13:50:17;2.90;;;1.35;;
16735;SDS011;17990;49.548;9.730;2022-10-23T13:52:45;3.05;;;1.23;;
16735;SDS011;17990;49.548;9.730;2022-10-23T13:55:14;2.70;;;1.05;;
16735;SDS011;17990;49.548;9.730;2022-10-23T13:57:46;2.45;;;1.70;;
16735;SDS011;17990;49.548;9.730;2022-10-23T14:00:13;3.00;;;1.60;;
16735;SDS011;17990;49.548;9.730;2022-10-23T14:02:41;4.45;;;1.83;;
16735;SDS011;17990;49.548;9.730;2022-10-23T14:05:09;2.40;;;1.80;;
16735;SDS011;17990;49.548;9.730;2022-10-23T14:07:37;4.22;;;2.65;;
16735;SDS011;17990;49.548;9.730;2022-10-23T14:10:04;5.97;;;3.17;;
16735;SDS011;17990;49.548;9.730;2022-10-23T14:12:37;3.10;;;2.80;;
16735;SDS011;17990;49.548;9.730;2022-10-23T14:15:05;5.57;;;1.95;;
16735;SDS011;17990;49.548;9.730;2022-10-23T14:17:34;3.65;;;2.20;;
16735;SDS011;17990;49.548;9.730;2022-10-23T14:20:02;2.92;;;2.38;;
16735;SDS011;17990;49.548;9.730;2022-10-23T14:22:32;5.07;;;1.90;;
16735;SDS011;17990;49.548;9.730;2022-10-23T14:24:59;3.00;;;1.50;;
16735;SDS011;17990;49.548;9.730;2022-10-23T14:27:26;3.90;;;1.60;;
16735;SDS011;17990;49.548;9.730;2022-10-23T14:29:53;3.25;;;1.95;;
16735;SDS011;17990;49.548;9.730;2022-10-23T14:32:20;2.65;;;1.80;;
16735;SDS011;17990;49.548;9.730;2022-10-23T14:34:49;2.58;;;1.80;;
16735;SDS011;17990;49.548;9.730;2022-10-23T14:37:17;14.77;;;7.55;;
16735;SDS011;17990;49.548;9.730;2022-10-23T14:39:46;4.38;;;3.55;;
16735;SDS011;17990;49.548;9.730;2022-10-23T14:42:13;5.47;;;3.63;;
16735;SDS011;17990;49.548;9.730;2022-10-23T14:44:40;5.10;;;3.45;;
16735;SDS011;17990;49.548;9.730;2022-10-23T14:47:08;6.40;;;3.70;;
16735;SDS011;17990;49.548;9.730;2022-10-23T14:49:35;13.40;;;8.82;;
16735;SDS011;17990;49.548;9.730;2022-10-23T14:52:04;9.15;;;6.30;;
16735;SDS011;17990;49.548;9.730;2022-10-23T14:54:31;9.52;;;5.20;;
16735;SDS011;17990;49.548;9.730;2022-10-23T14:57:00;4.85;;;1.50;;
16735;SDS011;17990;49.548;9.730;2022-10-23T14:59:28;4.90;;;1.15;;
16735;SDS011;17990;49.548;9.730;2022-10-23T15:01:55;8.38;;;5.03;;
16735;SDS011;17990;49.548;9.730;2022-10-23T15:04:22;3.10;;;1.80;;
16735;SDS011;17990;49.548;9.730;2022-10-23T15:06:49;7.70;;;1.40;;
16735;SDS011;17990;49.548;9.730;2022-10-23T15:09:17;4.82;;;1.05;;
16735;SDS011;17990;49.548;9.730;2022-10-23T15:11:44;7.43;;;1.42;;
16735;SDS011;17990;49.548;9.730;2022-10-23T15:14:12;4.83;;;1.10;;